Time;durP1;ratioP1;P1;durP2;ratioP2;P2;SDS_P1;SDS_P2;PMS_P1;PMS_P2;Temp;Humidity;BMP_temperature;BMP_pressure;BME280_temperature;BME280_humidity;BME280_pressure;Samples;Min_cycle;Max_cycle;Signal;HPM_P1;HPM_P2
2022/12/04 00:01:29;;;;;;;53.08;19.40;;;;;;;1.36;100.00;101916.78;2612575;36;20118;-48
2022/12/04 00:04:00;;;;;;;48.33;18.60;;;;;;;1.44;100.00;101907.69;2615074;36;20034;-49
2022/12/04 00:06:32;;;;;;;46.30;19.23;;;;;;;1.50;100.00;101907.50;2615905;36;20664;-53
2022/12/04 00:09:01;;;;;;;47.55;18.65;;;;;;;1.61;100.00;101900.03;2615083;36;20038;-48
2022/12/04 00:11:32;;;;;;;56.95;20.63;;;;;;;1.56;100.00;101901.97;2615795;31;20030;-48
2022/12/04 00:14:01;;;;;;;50.70;19.20;;;;;;;1.56;100.00;101902.84;2615655;36;20046;-49
2022/12/04 00:16:31;;;;;;;53.20;19.73;;;;;;;1.49;100.00;101897.81;2614923;36;20031;-49
2022/12/04 00:19:00;;;;;;;45.67;17.55;;;;;;;1.60;100.00;101903.59;2613914;36;20030;-49
2022/12/04 00:21:31;;;;;;;46.67;18.97;;;;;;;1.51;100.00;101909.22;2614931;36;20567;-48
2022/12/04 00:23:59;;;;;;;50.55;19.05;;;;;;;1.69;100.00;101905.06;2614994;36;20803;-49
2022/12/04 00:26:30;;;;;;;48.53;20.00;;;;;;;1.62;100.00;101901.78;2615272;31;20515;-48
2022/12/04 00:28:59;;;;;;;51.28;20.50;;;;;;;1.50;100.00;101907.50;2615512;36;20035;-48
2022/12/04 00:31:29;;;;;;;53.35;20.50;;;;;;;1.58;100.00;101897.50;2614958;36;20025;-51
2022/12/04 00:33:58;;;;;;;47.20;18.85;;;;;;;1.62;100.00;101893.81;2615612;36;20041;-47
2022/12/04 00:36:31;;;;;;;52.20;21.02;;;;;;;1.63;100.00;101898.19;2616105;31;20571;-50
2022/12/04 00:39:01;;;;;;;52.40;18.95;;;;;;;1.63;100.00;101892.88;2615960;36;20037;-49
2022/12/04 00:41:31;;;;;;;52.60;20.10;;;;;;;1.67;100.00;101894.53;2615369;36;20486;-49
2022/12/04 00:44:01;;;;;;;54.72;20.08;;;;;;;1.67;100.00;101891.00;2616595;36;20528;-49
2022/12/04 00:46:29;;;;;;;49.08;19.67;;;;;;;1.53;100.00;101892.34;2615324;36;20034;-47
2022/12/04 00:48:58;;;;;;;46.90;18.85;;;;;;;1.61;100.00;101888.56;2615956;36;20058;-50
2022/12/04 00:51:27;;;;;;;47.35;19.42;;;;;;;1.45;100.00;101894.38;2615235;36;20606;-51
2022/12/04 00:53:58;;;;;;;52.78;19.55;;;;;;;1.56;100.00;101886.94;2616151;36;20472;-49
2022/12/04 00:56:28;;;;;;;53.05;18.90;;;;;;;1.26;100.00;101888.81;2615345;31;20038;-50
2022/12/04 00:59:00;;;;;;;51.40;20.83;;;;;;;1.27;100.00;101889.72;2615819;36;20034;-51
2022/12/04 01:01:28;;;;;;;49.15;20.60;;;;;;;1.17;100.00;101897.09;2615974;36;20427;-54
2022/12/04 01:03:57;;;;;;;49.55;19.50;;;;;;;1.47;100.00;101899.63;2615390;36;20030;-50
2022/12/04 01:06:27;;;;;;;46.97;21.27;;;;;;;1.50;100.00;101891.56;2615818;31;20037;-49
2022/12/04 01:09:00;;;;;;;43.47;18.50;;;;;;;1.62;100.00;101893.81;2614290;36;20038;-49
2022/12/04 01:11:30;;;;;;;50.40;20.27;;;;;;;1.60;100.00;101887.69;2615541;36;20554;-48
2022/12/04 01:14:00;;;;;;;52.53;20.58;;;;;;;1.40;100.00;101893.69;2615858;36;20026;-48
2022/12/04 01:16:31;;;;;;;48.33;19.73;;;;;;;1.28;100.00;101897.63;2615321;36;20038;-47
2022/12/04 01:18:59;;;;;;;48.42;19.08;;;;;;;1.33;100.00;101889.50;2616409;36;20589;-49
2022/12/04 01:21:28;;;;;;;53.07;20.33;;;;;;;1.31;100.00;101888.66;2615485;36;20022;-48
2022/12/04 01:23:59;;;;;;;53.47;19.90;;;;;;;1.37;100.00;101893.75;2615282;36;20030;-49
2022/12/04 01:26:27;;;;;;;50.95;19.90;;;;;;;1.48;100.00;101888.13;2615043;36;20041;-48
2022/12/04 01:28:56;;;;;;;52.10;18.80;;;;;;;1.32;100.00;101893.06;2615541;36;20027;-47
2022/12/04 01:31:25;;;;;;;46.97;18.88;;;;;;;1.37;100.00;101884.03;2615675;36;20038;-49
2022/12/04 01:33:53;;;;;;;50.78;19.30;;;;;;;1.43;100.00;101879.44;2615639;36;20023;-47
2022/12/04 01:36:24;;;;;;;48.63;19.55;;;;;;;1.34;100.00;101881.50;2615901;36;20543;-48
2022/12/04 01:38:53;;;;;;;52.83;20.15;;;;;;;1.55;100.00;101879.03;2615787;36;20034;-47
2022/12/04 01:41:26;;;;;;;45.53;17.85;;;;;;;1.60;100.00;101877.06;2615968;36;20034;-48
2022/12/04 01:44:11;;;;;;;49.10;19.50;;;;;;;1.60;100.00;101882.38;2615320;36;20035;-49
2022/12/04 01:46:40;;;;;;;46.30;19.75;;;;;;;1.67;100.00;101878.59;2615387;36;20034;-52
2022/12/04 01:49:14;;;;;;;52.17;20.92;;;;;;;1.49;100.00;101871.28;2615627;36;20034;-49
2022/12/04 01:51:46;;;;;;;45.72;16.92;;;;;;;1.49;100.00;101864.19;2614671;36;20045;-47
2022/12/04 01:54:20;;;;;;;44.10;20.25;;;;;;;1.35;100.00;101877.03;2614446;36;20053;-50
2022/12/04 01:56:56;;;;;;;46.78;20.90;;;;;;;1.40;100.00;101872.47;2615929;36;20039;-48
2022/12/04 01:59:32;;;;;;;54.30;20.45;;;;;;;1.38;100.00;101876.94;2616175;36;20041;-48
2022/12/04 02:02:05;;;;;;;53.97;20.38;;;;;;;1.40;100.00;101875.13;2614713;36;20038;-49
2022/12/04 02:04:36;;;;;;;45.67;19.95;;;;;;;1.38;100.00;101879.59;2615221;36;20447;-49
2022/12/04 02:07:04;;;;;;;50.10;20.05;;;;;;;1.30;100.00;101885.16;2615608;36;20030;-48
2022/12/04 02:09:34;;;;;;;51.05;20.30;;;;;;;1.31;100.00;101881.59;2615293;36;20030;-49
2022/12/04 02:12:09;;;;;;;;;;;;;;;1.60;100.00;101884.19;2615730;36;20034;-47
2022/12/04 02:14:46;;;;;;;55.78;21.30;;;;;;;1.45;100.00;101882.91;2615635;36;19938;-49
2022/12/04 02:17:23;;;;;;;49.22;21.23;;;;;;;1.59;100.00;101885.97;2615019;36;20031;-46
2022/12/04 02:20:16;;;;;;;50.55;19.80;;;;;;;1.54;100.00;101885.25;2615696;36;20037;-47
2022/12/04 02:23:23;;;;;;;48.30;18.83;;;;;;;1.70;100.00;101885.59;2615261;36;20022;-48
2022/12/04 02:26:01;;;;;;;50.67;20.90;;;;;;;1.80;100.00;101878.19;2614296;36;20065;-47
2022/12/04 02:28:38;;;;;;;47.67;19.45;;;;;;;1.80;100.00;101884.34;2615478;31;20030;-47
2022/12/04 02:31:12;;;;;;;51.88;20.98;;;;;;;1.87;100.00;101890.28;2615130;36;20019;-51
2022/12/04 02:33:48;;;;;;;51.30;20.27;;;;;;;1.74;100.00;101884.56;2615433;36;20043;-50
2022/12/04 02:36:22;;;;;;;49.72;19.98;;;;;;;1.77;100.00;101883.56;2615523;36;20448;-49
2022/12/04 02:38:56;;;;;;;47.13;19.25;;;;;;;1.74;100.00;101881.91;2615289;36;20023;-50
2022/12/04 02:41:30;;;;;;;51.28;20.17;;;;;;;1.64;100.00;101876.06;2616054;36;20332;-49
2022/12/04 02:44:07;;;;;;;52.17;18.15;;;;;;;1.73;100.00;101880.16;2614661;36;20038;-48
2022/12/04 02:46:40;;;;;;;50.33;20.92;;;;;;;1.79;100.00;101879.09;2615244;36;20046;-49
2022/12/04 02:49:13;;;;;;;54.30;20.77;;;;;;;1.71;100.00;101877.56;2614970;36;20061;-51
2022/12/04 02:51:45;;;;;;;52.58;19.50;;;;;;;1.62;100.00;101874.38;2605941;36;20539;-49
2022/12/04 02:54:21;;;;;;;48.72;19.77;;;;;;;1.59;100.00;101875.38;2615576;31;20034;-47
2022/12/04 02:56:53;;;;;;;50.05;20.40;;;;;;;1.74;100.00;101869.50;2615779;36;20559;-49
2022/12/04 02:59:30;;;;;;;58.25;20.23;;;;;;;1.82;100.00;101876.31;2616029;31;20040;-46
2022/12/04 03:02:05;;;;;;;58.15;21.80;;;;;;;1.83;100.00;101872.75;2615245;36;20041;-49
2022/12/04 03:04:34;;;;;;;53.83;20.88;;;;;;;1.77;100.00;101870.31;2614559;36;20058;-48
2022/12/04 03:07:06;;;;;;;51.05;20.60;;;;;;;1.73;100.00;101857.13;2615308;36;20035;-48
2022/12/04 03:09:39;;;;;;;60.75;22.13;;;;;;;1.73;100.00;101851.84;2615049;36;20141;-49
2022/12/04 03:12:12;;;;;;;48.25;20.17;;;;;;;1.78;100.00;101850.81;2616001;36;20438;-47
2022/12/04 03:14:48;;;;;;;51.33;22.13;;;;;;;1.80;100.00;101857.81;2615602;36;20031;-47
2022/12/04 03:17:21;;;;;;;59.78;23.27;;;;;;;1.49;100.00;101860.69;2615123;36;20027;-49
2022/12/04 03:19:55;;;;;;;48.42;18.50;;;;;;;1.56;100.00;101864.81;2615109;36;20042;-50
2022/12/04 03:22:25;;;;;;;52.53;21.00;;;;;;;1.55;100.00;101865.78;2615300;36;20035;-48
2022/12/04 03:24:55;;;;;;;57.22;22.08;;;;;;;1.71;100.00;101859.00;2614858;36;20558;-50
2022/12/04 03:27:30;;;;;;;54.15;21.23;;;;;;;1.81;100.00;101863.97;2615507;36;20038;-47
2022/12/04 03:30:06;;;;;;;56.80;21.67;;;;;;;1.72;100.00;101859.84;2615595;31;20031;-48
2022/12/04 03:32:38;;;;;;;52.97;22.63;;;;;;;1.69;100.00;101855.53;2615796;36;20031;-48
2022/12/04 03:35:12;;;;;;;53.45;21.38;;;;;;;1.65;100.00;101853.91;2616042;36;20030;-48
2022/12/04 03:37:43;;;;;;;58.65;22.35;;;;;;;1.66;100.00;101850.31;2617018;31;20031;-49
2022/12/04 03:40:21;;;;;;;54.75;21.88;;;;;;;1.48;100.00;101851.84;2615935;31;20038;-50
2022/12/04 03:42:56;;;;;;;53.80;21.05;;;;;;;1.37;100.00;101854.88;2616009;36;20033;-50
2022/12/04 03:45:30;;;;;;;55.90;22.00;;;;;;;1.54;100.00;101850.75;2616113;36;20038;-47
2022/12/04 03:48:04;;;;;;;54.10;21.98;;;;;;;1.58;100.00;101844.44;2615988;36;20030;-50
2022/12/04 03:50:38;;;;;;;53.58;20.55;;;;;;;1.67;100.00;101846.75;2615183;36;20034;-49
2022/12/04 03:53:14;;;;;;;57.08;22.50;;;;;;;1.54;100.00;101845.44;2615399;36;20038;-52
2022/12/04 03:55:47;;;;;;;59.13;21.80;;;;;;;1.62;100.00;101843.41;2615785;36;20034;-50
2022/12/04 03:58:21;;;;;;;59.75;22.88;;;;;;;1.65;100.00;101845.94;2616042;36;20061;-49
2022/12/04 04:00:54;;;;;;;52.20;21.63;;;;;;;1.64;100.00;101846.84;2615825;36;20046;-49
2022/12/04 04:03:27;;;;;;;56.90;21.67;;;;;;;1.71;100.00;101847.53;2616323;36;20034;-48
2022/12/04 04:06:05;;;;;;;55.03;21.55;;;;;;;1.60;100.00;101850.53;2617371;31;20435;-48
2022/12/04 04:08:37;;;;;;;50.78;20.58;;;;;;;1.70;100.00;101849.28;2615843;31;20041;-51
2022/12/04 04:11:15;;;;;;;58.55;22.00;;;;;;;1.58;100.00;101850.59;2616002;36;20037;-49
2022/12/04 04:24:48;;;;;;;60.00;22.67;;;;;;;1.51;100.00;101845.56;2615098;36;20042;-48
2022/12/04 04:27:16;;;;;;;55.58;21.15;;;;;;;1.52;100.00;101845.50;2616377;36;20034;-48
2022/12/04 04:29:46;;;;;;;53.78;21.45;;;;;;;1.65;100.00;101851.25;2616107;36;20033;-47
2022/12/04 04:32:26;;;;;;;54.42;21.77;;;;;;;1.47;100.00;101844.78;2615195;36;20034;-48
2022/12/04 04:35:03;;;;;;;52.75;22.67;;;;;;;1.52;100.00;101849.97;2614731;36;20030;-47
2022/12/04 04:37:38;;;;;;;63.25;23.88;;;;;;;1.33;100.00;101855.88;2616092;36;20035;-48
2022/12/04 04:40:14;;;;;;;56.63;22.30;;;;;;;1.38;100.00;101851.31;2616392;31;20535;-47
2022/12/04 04:42:50;;;;;;;58.05;22.08;;;;;;;1.43;100.00;101852.91;2616050;36;20035;-48
2022/12/04 04:45:23;;;;;;;55.97;21.65;;;;;;;1.58;100.00;101863.00;2616424;36;20023;-48
2022/12/04 04:47:58;;;;;;;62.45;22.27;;;;;;;1.70;100.00;101859.91;2616152;31;20535;-49
2022/12/04 04:50:27;;;;;;;53.75;21.15;;;;;;;1.73;100.00;101865.09;2615638;36;20034;-48
2022/12/04 04:53:00;;;;;;;49.05;22.42;;;;;;;1.74;100.00;101864.19;2610639;36;20026;-48
2022/12/04 04:55:33;;;;;;;53.50;20.95;;;;;;;1.74;100.00;101858.03;2616420;31;20555;-48
2022/12/04 04:58:08;;;;;;;56.78;21.83;;;;;;;1.58;100.00;101861.19;2615474;36;20038;-47
2022/12/04 05:00:37;;;;;;;58.40;22.35;;;;;;;1.65;100.00;101853.03;2615763;36;20038;-48
2022/12/04 05:03:08;;;;;;;55.30;21.45;;;;;;;1.51;100.00;101857.03;2615841;31;20038;-47
2022/12/04 05:05:36;;;;;;;57.70;23.50;;;;;;;1.63;100.00;101849.56;2615790;36;20034;-49
2022/12/04 05:08:05;;;;;;;53.65;21.90;;;;;;;1.50;100.00;101847.34;2615987;36;20041;-48
2022/12/04 05:10:33;;;;;;;55.05;22.38;;;;;;;1.70;100.00;101845.78;2615364;36;20042;-50
2022/12/04 05:13:04;;;;;;;54.63;20.95;;;;;;;1.72;100.00;101844.81;2616513;36;20034;-48
2022/12/04 05:15:33;;;;;;;53.67;20.27;;;;;;;1.80;100.00;101841.88;2616117;31;20424;-50
2022/12/04 05:18:01;;;;;;;51.88;20.05;;;;;;;1.56;100.00;101843.59;2615634;36;20023;-47
2022/12/04 05:20:32;;;;;;;51.15;21.08;;;;;;;1.36;100.00;101853.13;2615376;36;20034;-47
2022/12/04 05:23:00;;;;;;;55.30;22.70;;;;;;;1.53;100.00;101856.97;2615914;36;20455;-48
2022/12/04 05:25:29;;;;;;;54.20;22.73;;;;;;;1.51;100.00;101851.72;2615838;36;20030;-48
2022/12/04 05:27:57;;;;;;;55.22;22.30;;;;;;;1.49;100.00;101848.28;2615423;36;20046;-47
2022/12/04 05:30:25;;;;;;;52.50;20.83;;;;;;;1.57;100.00;101850.66;2614985;36;20253;-47
2022/12/04 05:32:54;;;;;;;49.50;20.35;;;;;;;1.64;100.00;101852.16;2615294;36;20038;-48
2022/12/04 05:35:22;;;;;;;56.42;21.40;;;;;;;1.79;100.00;101856.06;2615709;31;20026;-47
2022/12/04 05:37:53;;;;;;;54.13;21.00;;;;;;;1.70;100.00;101862.56;2615130;36;20030;-47
2022/12/04 05:40:21;;;;;;;54.72;22.02;;;;;;;1.39;100.00;101862.78;2615414;36;20041;-48
2022/12/04 05:42:49;;;;;;;58.03;21.92;;;;;;;1.36;100.00;101862.88;2615100;36;20030;-48
2022/12/04 05:45:18;;;;;;;49.47;20.15;;;;;;;1.44;100.00;101858.16;2615559;36;20057;-48
2022/12/04 05:47:46;;;;;;;58.80;23.50;;;;;;;1.38;100.00;101856.59;2613579;36;20035;-48
2022/12/04 05:50:15;;;;;;;56.67;21.80;;;;;;;1.46;100.00;101863.41;2615376;36;20428;-52
2022/12/04 05:52:43;;;;;;;60.55;21.83;;;;;;;1.53;100.00;101856.97;2614055;31;20291;-50
2022/12/04 05:55:14;;;;;;;58.60;22.05;;;;;;;1.23;100.00;101862.41;2615631;36;20023;-48
2022/12/04 05:57:42;;;;;;;56.35;22.92;;;;;;;1.40;100.00;101854.75;2615692;36;20039;-48
2022/12/04 06:00:12;;;;;;;58.33;21.60;;;;;;;1.36;100.00;101858.44;2615296;36;20049;-52
2022/12/04 06:02:40;;;;;;;55.60;22.58;;;;;;;1.48;100.00;101866.91;2615011;31;20030;-50
2022/12/04 06:05:09;;;;;;;55.97;21.08;;;;;;;1.57;100.00;101866.56;2614974;36;20547;-49
2022/12/04 06:07:37;;;;;;;59.80;22.57;;;;;;;1.62;100.00;101861.09;2614840;36;20030;-53
2022/12/04 06:10:07;;;;;;;56.63;21.17;;;;;;;1.47;100.00;101854.53;2615290;31;20030;-52
2022/12/04 06:12:38;;;;;;;54.50;21.02;;;;;;;1.46;100.00;101852.78;2615681;36;20026;-52
2022/12/04 06:15:08;;;;;;;61.58;23.52;;;;;;;1.48;100.00;101853.63;2616506;31;20034;-49
2022/12/04 06:17:36;;;;;;;56.88;24.25;;;;;;;1.54;100.00;101856.06;2614979;36;20547;-49
2022/12/04 06:20:05;;;;;;;54.78;21.90;;;;;;;1.43;100.00;101851.13;2614660;31;20036;-50
2022/12/04 06:22:33;;;;;;;54.55;20.83;;;;;;;1.52;100.00;101857.91;2615418;36;20022;-49
2022/12/04 06:25:01;;;;;;;64.28;23.75;;;;;;;1.49;100.00;101852.72;2615262;36;20034;-49
2022/12/04 06:27:30;;;;;;;56.92;22.95;;;;;;;1.52;100.00;101860.56;2615188;36;20023;-48
2022/12/04 06:30:01;;;;;;;50.55;20.17;;;;;;;1.50;100.00;101850.00;2615202;36;20035;-48
2022/12/04 06:32:29;;;;;;;56.63;21.15;;;;;;;1.43;100.00;101859.09;2606057;36;20050;-50
2022/12/04 06:34:57;;;;;;;58.22;21.80;;;;;;;1.70;100.00;101867.00;2615756;36;20035;-49
2022/12/04 06:37:27;;;;;;;54.25;22.75;;;;;;;1.68;100.00;101861.75;2615523;36;20566;-48
2022/12/04 06:39:55;;;;;;;;;;;;;;;1.65;100.00;101864.53;2615778;36;20682;-49
2022/12/04 06:42:23;;;;;;;58.13;22.85;;;;;;;1.52;100.00;101868.53;2614870;36;19958;-48
2022/12/04 06:44:51;;;;;;;61.35;23.02;;;;;;;1.55;100.00;101863.13;2614961;36;20026;-49
2022/12/04 06:47:22;;;;;;;59.30;23.15;;;;;;;1.67;100.00;101873.28;2615011;36;20038;-46
2022/12/04 06:49:51;;;;;;;55.22;22.30;;;;;;;1.72;100.00;101867.81;2614134;36;20041;-48
2022/12/04 06:52:20;;;;;;;62.58;24.05;;;;;;;1.84;100.00;101869.16;2615318;36;20045;-48
2022/12/04 06:54:48;;;;;;;59.47;22.20;;;;;;;1.53;100.00;101865.81;2615136;36;20359;-47
2022/12/04 06:57:16;;;;;;;58.20;22.00;;;;;;;1.49;100.00;101864.19;2615529;36;20041;-46
2022/12/04 06:59:45;;;;;;;52.88;22.02;;;;;;;1.69;100.00;101871.47;2616493;31;20027;-50
2022/12/04 07:02:13;;;;;;;60.45;26.10;;;;;;;1.40;100.00;101869.81;2614320;36;20124;-48
2022/12/04 07:04:44;;;;;;;56.05;20.30;;;;;;;1.56;100.00;101865.72;2615148;36;20045;-50
2022/12/04 07:07:13;;;;;;;53.45;21.52;;;;;;;1.55;100.00;101876.38;2615320;36;20042;-51
2022/12/04 07:09:41;;;;;;;56.45;22.30;;;;;;;1.53;100.00;101871.13;2616150;31;20451;-50
2022/12/04 07:12:09;;;;;;;60.03;21.88;;;;;;;1.67;100.00;101867.13;2615016;36;20566;-48
2022/12/04 07:14:38;;;;;;;59.05;23.10;;;;;;;1.75;100.00;101871.25;2615351;36;20037;-49
2022/12/04 07:17:06;;;;;;;51.95;21.38;;;;;;;1.64;100.00;101868.09;2614710;36;20030;-49
2022/12/04 07:19:34;;;;;;;58.65;22.73;;;;;;;1.54;100.00;101862.22;2615889;36;20045;-49
2022/12/04 07:22:05;;;;;;;56.22;21.77;;;;;;;1.72;100.00;101866.03;2615433;36;20415;-48
2022/12/04 07:24:33;;;;;;;53.72;21.20;;;;;;;1.73;100.00;101869.56;2614363;36;20057;-49
2022/12/04 07:27:02;;;;;;;56.80;21.80;;;;;;;1.67;100.00;101867.97;2615530;36;20042;-48
2022/12/04 07:29:30;;;;;;;56.20;21.05;;;;;;;1.78;100.00;101867.59;2615859;36;20041;-48
2022/12/04 07:31:58;;;;;;;55.58;21.90;;;;;;;1.79;100.00;101869.34;2614102;36;20034;-48
2022/12/04 07:34:27;;;;;;;51.20;20.23;;;;;;;1.63;100.00;101876.09;2615446;36;20049;-49
2022/12/04 07:36:55;;;;;;;58.67;21.73;;;;;;;1.62;100.00;101869.06;2615091;31;20551;-48
2022/12/04 07:39:26;;;;;;;57.53;21.67;;;;;;;1.70;100.00;101867.88;2614659;36;20582;-51
2022/12/04 07:41:54;;;;;;;55.10;22.42;;;;;;;1.72;100.00;101875.78;2614901;36;20034;-50
2022/12/04 07:44:22;;;;;;;52.72;20.73;;;;;;;1.89;100.00;101875.19;2615303;31;20030;-51
2022/12/04 07:46:50;;;;;;;55.67;22.45;;;;;;;1.85;100.00;101876.22;2615279;36;20034;-50
2022/12/04 07:49:19;;;;;;;53.38;21.05;;;;;;;1.73;100.00;101882.81;2615403;36;20022;-48
2022/12/04 07:51:47;;;;;;;56.10;22.50;;;;;;;1.72;100.00;101875.78;2614639;36;20034;-48
2022/12/04 07:54:15;;;;;;;56.42;22.00;;;;;;;1.57;100.00;101882.50;2614297;36;20574;-47
2022/12/04 07:56:46;;;;;;;52.33;21.67;;;;;;;1.61;100.00;101873.50;2613985;36;20031;-49
2022/12/04 07:59:15;;;;;;;60.80;22.52;;;;;;;1.70;100.00;101878.47;2615088;36;20707;-48
2022/12/04 08:01:43;;;;;;;61.78;23.33;;;;;;;1.78;100.00;101874.69;2615136;31;20027;-49
2022/12/04 08:04:12;;;;;;;59.78;22.95;;;;;;;1.61;100.00;101877.97;2614291;36;20031;-47
2022/12/04 08:06:41;;;;;;;55.63;24.70;;;;;;;1.62;100.00;101875.25;2615215;36;20042;-51
2022/12/04 08:09:10;;;;;;;54.42;21.92;;;;;;;1.64;100.00;101878.72;2614894;36;20046;-48
2022/12/04 08:11:38;;;;;;;52.45;20.60;;;;;;;1.75;100.00;101881.88;2612748;36;20041;-48
2022/12/04 08:14:10;;;;;;;55.90;21.97;;;;;;;1.77;100.00;101884.47;2614800;31;20133;-49
2022/12/04 08:16:42;;;;;;;58.25;22.55;;;;;;;1.80;100.00;101891.47;2615829;47;20284;-49
2022/12/04 08:19:11;;;;;;;57.72;21.95;;;;;;;1.86;100.00;101888.56;2615135;36;20030;-49
2022/12/04 08:21:39;;;;;;;58.00;22.55;;;;;;;1.71;100.00;101896.16;2616439;31;20030;-51
2022/12/04 08:24:08;;;;;;;61.80;22.75;;;;;;;1.74;100.00;101889.88;2615714;31;20022;-49
2022/12/04 08:26:36;;;;;;;54.30;21.90;;;;;;;1.74;100.00;101896.03;2615872;36;20022;-47
2022/12/04 08:29:06;;;;;;;52.67;22.88;;;;;;;1.64;100.00;101907.91;2616002;36;20043;-48
2022/12/04 08:31:37;;;;;;;59.60;21.00;;;;;;;1.78;100.00;101901.25;2614811;36;20030;-46
2022/12/04 08:34:07;;;;;;;52.15;21.55;;;;;;;1.69;100.00;101905.97;2616364;36;20018;-47
2022/12/04 08:36:36;;;;;;;57.85;22.20;;;;;;;1.79;100.00;101902.97;2615648;36;20535;-48
2022/12/04 08:39:05;;;;;;;58.70;22.20;;;;;;;1.93;100.00;101906.88;2615723;36;20034;-47
2022/12/04 08:41:33;;;;;;;57.73;22.17;;;;;;;1.91;100.00;101908.72;2615855;36;20039;-49
2022/12/04 08:44:02;;;;;;;53.92;21.20;;;;;;;1.76;100.00;101903.94;2616082;36;20041;-47
2022/12/04 08:46:30;;;;;;;54.00;22.70;;;;;;;1.86;100.00;101909.81;2614725;31;20029;-49
2022/12/04 08:49:01;;;;;;;51.97;21.47;;;;;;;1.97;100.00;101917.38;2615241;36;20034;-48
2022/12/04 08:51:33;;;;;;;49.97;20.15;;;;;;;1.91;100.00;101915.81;2615669;36;20030;-49
2022/12/04 08:54:04;;;;;;;52.53;21.58;;;;;;;2.00;100.00;101907.50;2615448;36;20026;-48
2022/12/04 08:56:34;;;;;;;55.92;21.63;;;;;;;2.12;100.00;101910.66;2615852;36;20423;-48
2022/12/04 08:59:03;;;;;;;54.35;20.40;;;;;;;2.14;100.00;101917.66;2615631;36;20035;-49
2022/12/04 09:01:31;;;;;;;45.72;19.58;;;;;;;2.14;100.00;101920.31;2615013;36;20022;-48
2022/12/04 09:04:02;;;;;;;55.03;20.65;;;;;;;2.17;100.00;101914.88;2614828;36;20034;-47
2022/12/04 09:06:30;;;;;;;48.78;20.60;;;;;;;1.99;100.00;101916.41;2616314;36;20034;-47
2022/12/04 09:08:59;;;;;;;52.80;19.30;;;;;;;1.84;100.00;101915.19;2615187;36;20030;-48
2022/12/04 09:11:29;;;;;;;59.60;23.43;;;;;;;1.76;100.00;101914.56;2615529;36;20023;-48
2022/12/04 09:13:58;;;;;;;55.92;22.08;;;;;;;1.79;100.00;101918.91;2615743;36;20041;-49
2022/12/04 09:16:27;;;;;;;52.30;21.65;;;;;;;1.66;100.00;101923.75;2615697;36;20034;-47
2022/12/04 09:18:56;;;;;;;51.92;20.65;;;;;;;1.70;100.00;101915.63;2614413;36;20547;-48
2022/12/04 09:21:27;;;;;;;44.08;18.60;;;;;;;1.91;100.00;101913.16;2616099;36;20439;-46
2022/12/04 09:23:56;;;;;;;48.28;22.85;;;;;;;1.75;100.00;101934.06;2616203;31;20423;-48
2022/12/04 09:26:28;;;;;;;48.67;21.00;;;;;;;1.74;100.00;101922.59;2614337;36;20038;-47
2022/12/04 09:28:57;;;;;;;52.47;19.35;;;;;;;1.87;100.00;101927.44;2615192;36;20034;-48
2022/12/04 09:31:26;;;;;;;;;;;;;;;1.95;100.00;101929.88;2615368;36;20027;-48
2022/12/04 09:33:54;;;;;;;52.07;22.47;;;;;;;1.98;100.00;101927.94;2615498;36;20462;-48
2022/12/04 09:36:23;;;;;;;46.90;18.33;;;;;;;1.95;100.00;101920.09;2615567;36;20423;-48
2022/12/04 09:38:55;;;;;;;49.75;19.75;;;;;;;2.11;100.00;101923.06;2614862;36;20025;-48
2022/12/04 09:41:46;;;;;;;41.85;18.20;;;;;;;2.05;100.00;101918.00;2616137;36;20443;-48
2022/12/04 09:44:20;;;;;;;48.00;19.15;;;;;;;1.84;100.00;101911.63;2614794;36;20431;-52
2022/12/04 09:46:54;;;;;;;49.22;18.80;;;;;;;1.90;100.00;101919.41;2615260;36;20039;-50
2022/12/04 09:49:28;;;;;;;42.97;18.75;;;;;;;1.79;100.00;101919.75;2615601;31;20034;-49
2022/12/04 09:52:01;;;;;;;180.50;54.00;;;;;;;1.89;100.00;101921.19;2615844;36;20034;-48
2022/12/04 09:54:38;;;;;;;62.72;24.70;;;;;;;1.91;100.00;101910.50;2615776;36;20581;-48
2022/12/04 09:57:17;;;;;;;43.22;16.98;;;;;;;1.84;100.00;101911.63;2614647;36;20038;-49
2022/12/04 09:59:46;;;;;;;45.95;19.90;;;;;;;1.77;100.00;101910.13;2615662;36;20038;-49
2022/12/04 10:02:38;;;;;;;47.75;19.00;;;;;;;1.79;100.00;101908.28;2614610;31;20035;-48
2022/12/04 10:05:16;;;;;;;45.85;18.15;;;;;;;1.88;100.00;101908.81;2615578;36;20494;-47
2022/12/04 10:07:50;;;;;;;36.83;14.95;;;;;;;1.80;100.00;101910.03;2615894;36;20030;-50
2022/12/04 10:10:28;;;;;;;38.50;15.75;;;;;;;1.77;100.00;101910.13;2615052;36;20041;-49
2022/12/04 10:13:06;;;;;;;35.97;15.27;;;;;;;1.86;100.00;101912.47;2614173;36;20551;-47
2022/12/04 10:15:42;;;;;;;37.15;15.00;;;;;;;1.84;100.00;101899.25;2615188;36;20034;-48
2022/12/04 10:18:23;;;;;;;36.20;16.45;;;;;;;1.89;100.00;101901.75;2615402;31;20030;-49
2022/12/04 10:21:16;;;;;;;37.90;15.60;;;;;;;1.95;100.00;101890.91;2615700;36;20034;-50
2022/12/04 10:23:54;;;;;;;32.92;14.25;;;;;;;1.97;100.00;101891.69;2615149;36;20030;-50
2022/12/04 10:26:29;;;;;;;32.95;13.25;;;;;;;2.04;100.00;101898.53;2615440;36;20471;-48
2022/12/04 10:29:03;;;;;;;34.97;13.43;;;;;;;2.02;100.00;101892.41;2615546;36;20034;-49
2022/12/04 10:31:34;;;;;;;33.10;14.45;;;;;;;1.89;100.00;101896.44;2615836;36;20383;-50
2022/12/04 10:34:07;;;;;;;29.65;13.30;;;;;;;1.95;100.00;101888.25;2616469;31;20032;-49
2022/12/04 10:36:37;;;;;;;31.92;13.45;;;;;;;1.95;100.00;101890.03;2613557;31;20038;-51
2022/12/04 10:39:12;;;;;;;34.15;12.85;;;;;;;2.08;100.00;101888.66;2615645;31;20030;-52
2022/12/04 10:41:49;;;;;;;32.08;13.25;;;;;;;1.90;100.00;101885.75;2615043;36;20030;-52
2022/12/04 10:44:19;;;;;;;33.75;14.48;;;;;;;1.75;100.00;101887.16;2615528;36;20034;-48
2022/12/04 10:46:48;;;;;;;30.30;12.82;;;;;;;1.83;100.00;101891.34;2615425;36;20026;-51
2022/12/04 10:49:21;;;;;;;28.63;12.63;;;;;;;1.91;100.00;101891.91;2615425;36;20601;-49
2022/12/04 10:51:50;;;;;;;31.52;12.50;;;;;;;1.98;100.00;101898.75;2599018;31;20037;-48
2022/12/04 10:54:23;;;;;;;29.63;12.48;;;;;;;1.93;100.00;101895.41;2613400;36;20030;-48
2022/12/04 10:56:59;;;;;;;24.75;12.10;;;;;;;2.04;100.00;101895.88;2613334;36;20034;-48
2022/12/04 10:59:29;;;;;;;26.73;11.00;;;;;;;2.04;100.00;101898.53;2615702;31;20150;-47
2022/12/04 11:02:01;;;;;;;;;;;;;;;2.14;100.00;101898.22;2613446;36;20042;-48
2022/12/04 11:04:32;;;;;;;27.98;11.45;;;;;;;2.13;100.00;101896.47;2614827;36;19958;-49
2022/12/04 11:07:05;;;;;;;24.35;11.48;;;;;;;2.21;100.00;101883.75;2616219;31;20026;-48
2022/12/04 11:09:34;;;;;;;29.27;12.05;;;;;;;2.04;100.00;101884.38;2615157;36;20042;-50
2022/12/04 11:12:20;;;;;;;23.70;10.00;;;;;;;2.05;100.00;101886.13;2614432;36;20035;-48
2022/12/04 11:14:48;;;;;;;27.55;10.57;;;;;;;2.15;100.00;101881.31;2614447;36;20660;-47
2022/12/04 11:17:19;;;;;;;24.75;10.93;;;;;;;2.20;100.00;101872.28;2615141;36;20019;-47
2022/12/04 11:19:47;;;;;;;29.55;12.00;;;;;;;2.22;100.00;101874.88;2614600;36;20543;-48
2022/12/04 11:22:19;;;;;;;20.60;10.43;;;;;;;2.15;100.00;101876.00;2615676;31;20034;-49
2022/12/04 11:24:54;;;;;;;24.27;11.07;;;;;;;2.10;100.00;101877.03;2614098;36;20370;-50
2022/12/04 11:27:30;;;;;;;27.08;11.25;;;;;;;2.05;100.00;101865.75;2612629;36;20035;-48
2022/12/04 11:30:00;;;;;;;30.15;12.45;;;;;;;2.17;100.00;101860.91;2613115;36;20546;-48
2022/12/04 11:32:32;;;;;;;20.20;9.70;;;;;;;2.23;100.00;101868.66;2611635;31;21273;-50
2022/12/04 11:35:05;;;;;;;20.90;9.77;;;;;;;2.13;100.00;101869.91;2611702;36;20041;-50
2022/12/04 11:37:36;;;;;;;23.25;11.20;;;;;;;2.02;100.00;101870.31;2613125;36;20030;-47
2022/12/04 11:40:08;;;;;;;22.80;10.35;;;;;;;2.08;100.00;101872.72;2612653;36;20061;-50